createdAt,value
2018-03-24T10:18:14.561Z,8.83
2018-03-24T10:24:17.476Z,8.20
2018-03-24T10:26:44.419Z,7.93
2018-03-24T10:29:11.418Z,9.17
2018-03-24T10:31:43.744Z,8.87
2018-03-24T10:34:10.010Z,8.40
2018-03-24T10:36:36.270Z,8.57
2018-03-24T10:39:02.935Z,9.00
2018-03-24T10:41:38.113Z,9.10
2018-03-24T10:44:04.406Z,9.07
2018-03-24T10:46:30.657Z,8.70
2018-03-24T10:48:57.274Z,8.80
2018-03-24T10:51:23.571Z,9.57
2018-03-24T10:53:49.882Z,9.67
2018-03-24T10:56:16.472Z,8.70
2018-03-24T10:58:42.902Z,9.53
2018-03-24T11:01:13.157Z,9.80
2018-03-24T11:03:40.181Z,9.40
2018-03-24T11:06:08.753Z,9.47
2018-03-24T11:08:34.986Z,8.87
2018-03-24T11:11:01.518Z,8.87
2018-03-24T11:13:27.950Z,9.63
2018-03-24T11:15:54.209Z,9.33
2018-03-24T11:18:20.510Z,9.80
2018-03-24T11:20:46.764Z,9.97
2018-03-24T11:23:13.278Z,10.23
2018-03-24T11:25:39.520Z,10.80
2018-03-24T11:28:06.039Z,10.20
2018-03-24T11:30:32.295Z,10.20
2018-03-24T11:32:58.804Z,10.23
2018-03-24T11:35:25.100Z,9.90
2018-03-24T11:37:51.567Z,10.13
2018-03-24T11:40:17.828Z,9.40
2018-03-24T11:42:44.116Z,10.40
2018-03-24T11:45:10.513Z,9.90
2018-03-24T11:47:36.831Z,10.93
2018-03-24T11:50:03.108Z,10.50
2018-03-24T18:25:09.134Z,13.90
2018-03-24T18:27:35.382Z,12.80
2018-03-24T18:30:01.870Z,13.40
2018-03-24T18:32:28.309Z,13.53
2018-03-24T18:34:54.665Z,14.13
2018-03-24T18:37:20.931Z,13.53
2018-03-24T18:39:47.188Z,14.37
2018-03-24T18:42:13.626Z,15.33
2018-03-24T18:44:39.894Z,15.30
2018-03-24T18:47:06.182Z,15.73
2018-03-24T18:49:35.922Z,17.07
2018-03-24T18:52:02.459Z,18.00
2018-03-24T18:54:28.803Z,19.20
2018-03-24T18:56:55.155Z,22.40
2018-03-24T18:59:21.421Z,24.60
2018-03-24T19:01:48.626Z,25.03
2018-03-24T19:04:15.007Z,25.10
2018-03-24T19:06:41.542Z,26.77
2018-03-24T19:09:07.966Z,28.87
2018-03-24T19:11:34.512Z,29.90
2018-03-24T19:14:13.064Z,30.30
2018-03-24T19:16:40.435Z,31.50
2018-03-24T19:19:06.704Z,33.00
2018-03-24T19:21:33.662Z,33.87
2018-03-24T19:23:59.906Z,33.93
2018-03-24T19:26:26.173Z,35.63
2018-03-24T19:28:52.439Z,35.63
2018-03-24T19:31:18.981Z,36.10
2018-03-24T19:33:45.518Z,34.70
2018-03-24T19:36:12.123Z,34.60
2018-03-24T19:38:38.391Z,34.43
2018-03-24T19:41:04.642Z,36.07
2018-03-24T19:43:30.899Z,35.17
2018-03-24T19:45:57.145Z,34.57
2018-03-24T19:48:24.092Z,35.83
2018-03-24T19:50:51.036Z,34.67
2018-03-24T19:53:17.282Z,35.93
2018-03-24T19:55:43.825Z,36.07
2018-03-24T19:58:10.101Z,36.60
2018-03-24T20:00:36.356Z,35.73
2018-03-24T20:03:05.771Z,35.97
2018-03-24T20:05:32.028Z,34.10
2018-03-24T20:07:58.329Z,33.93
2018-03-24T20:10:24.641Z,33.30
2018-03-24T20:12:51.109Z,34.00
2018-03-24T20:15:18.702Z,32.97
2018-03-24T20:17:45.209Z,29.80
2018-03-24T20:20:11.739Z,27.17
2018-03-24T20:22:37.989Z,27.37
2018-03-24T20:25:05.389Z,23.47
2018-03-24T20:27:31.964Z,24.00
2018-03-24T20:29:58.236Z,21.87
2018-03-24T20:32:24.726Z,20.67
2018-03-24T20:34:50.998Z,19.90
2018-03-24T20:37:17.256Z,20.20
2018-03-24T20:39:43.526Z,18.80
2018-03-24T20:42:10.606Z,16.83
2018-03-24T20:44:37.587Z,17.00
2018-03-24T20:47:03.907Z,16.97
2018-03-24T20:49:30.172Z,16.87
2018-03-24T20:51:56.702Z,14.90
2018-03-24T20:54:23.612Z,14.60
2018-03-24T20:56:50.284Z,14.17
2018-03-24T20:59:16.577Z,14.03
2018-03-24T21:01:42.840Z,14.17
2018-03-24T21:04:09.155Z,14.07
2018-03-24T21:06:35.608Z,14.50
2018-03-24T21:09:02.142Z,13.17
2018-03-24T21:11:28.430Z,13.43
2018-03-24T21:13:55.289Z,13.67
2018-03-24T21:16:27.257Z,13.17
2018-03-24T21:18:53.715Z,14.17
2018-03-24T21:21:20.248Z,12.83
2018-03-24T21:23:46.682Z,12.77
2018-03-24T21:26:13.021Z,13.47
2018-03-24T21:28:39.335Z,13.33
2018-03-24T21:31:06.326Z,13.13
2018-03-24T21:33:32.823Z,12.77
2018-03-24T21:35:59.363Z,13.23
2018-03-24T21:38:25.901Z,12.77
